首页
METAR-TAF:

METAR-TAF

机场 :

Leuchars, 苏格兰

纬度: 56-23N, 经度: 002-52W, 海拔: 12米

当前天气观测

该预报发布于1小时和12分钟前的08:50 UTC
风速12节,风向
温度 13°C
湿度 82%
气压 1015 hPa
能见度10公里或以上
少量云层高于900英尺
多云层高于1700英尺

METAR: EGQL 190850Z 09012KT 9999 FEW009 BKN017 13/10 Q1015 WHT

时间: 11:02 (10:02 UTC)

预报

该预报发布于2小时和39分钟前的07:23 UTC
预报有效从19日的 09点(UTC)到 19日的 18点(UTC)
风速10节,风向
能见度10公里或以上
少量云层高于1600英尺
多云层高于2500英尺
短暂存在
从 19日的 09点(UTC)到 19日的 18点(UTC)
能見度: 5000
多云层高于1600英尺
阵雨
几率 40% :
短暂存在
从 19日的 09点(UTC)到 19日的 12点(UTC)
多云层高于1000英尺

TAF: EGQL 190723Z 1909/1918 09010KT 9999 FEW016 BKN025 TEMPO 1909/1918 5000 SHRA BKN016 PROB40 TEMPO 1909/1912 BKN010

超过4000个机场的气象观测和天气预报(METAR&TAF报告)。

可查询的气象台以黄色和红色小点在地图上表示。

将鼠标移到小点上方,可查看气象台名称。

然后点击查看天气观测和预报。

如需切换地图:点击带黑十字的绿色按钮放大地图;点击带横线的绿色按钮缩小地图;或者点击绿色箭头查看邻近地区的地图。


METAR-TAF: